createdAt,value
2019-03-18T00:00:56.346Z,2.03
2019-03-18T00:03:23.780Z,2.70
2019-03-18T00:05:51.504Z,1.80
2019-03-18T00:08:18.995Z,1.30
2019-03-18T00:10:46.616Z,2.70
2019-03-18T00:13:14.089Z,3.50
2019-03-18T00:15:41.722Z,1.33
2019-03-18T00:18:09.246Z,1.00
2019-03-18T00:20:36.753Z,2.20
2019-03-18T00:23:04.314Z,2.70
2019-03-18T00:25:31.844Z,1.07
2019-03-18T00:27:59.511Z,0.70
2019-03-18T00:30:27.013Z,1.00
2019-03-18T00:32:54.448Z,3.50
2019-03-18T00:35:21.895Z,2.87
2019-03-18T00:37:49.371Z,3.20
2019-03-18T00:40:18.058Z,6.07
2019-03-18T00:42:45.672Z,1.03
2019-03-18T00:45:15.792Z,0.90
2019-03-18T00:47:43.453Z,10.90
2019-03-18T00:50:10.994Z,1.60
2019-03-18T00:52:39.494Z,2.80
2019-03-18T00:55:07.280Z,0.83
2019-03-18T00:57:34.729Z,2.83
2019-03-18T01:00:04.647Z,0.97
2019-03-18T01:02:33.377Z,0.60
2019-03-18T01:05:00.809Z,7.30
2019-03-18T01:07:28.322Z,3.23
2019-03-18T01:09:55.769Z,0.53
2019-03-18T01:12:23.252Z,2.13
2019-03-18T01:14:50.699Z,1.03
2019-03-18T01:17:18.138Z,3.30
2019-03-18T01:19:45.601Z,0.40
2019-03-18T01:22:13.125Z,2.47
2019-03-18T01:24:40.577Z,0.50
2019-03-18T01:27:08.023Z,1.63
2019-03-18T01:29:35.524Z,0.77
2019-03-18T01:32:03.024Z,0.73
2019-03-18T01:34:30.466Z,0.50
2019-03-18T01:36:58.541Z,1.40
2019-03-18T01:39:26.045Z,1.00
2019-03-18T01:41:53.506Z,0.73
2019-03-18T01:44:20.978Z,1.10
2019-03-18T01:46:48.483Z,2.30
2019-03-18T01:49:15.968Z,1.23
2019-03-18T01:51:43.917Z,0.60
2019-03-18T01:54:11.342Z,0.77
2019-03-18T01:56:38.990Z,1.27
2019-03-18T01:59:06.482Z,0.47
2019-03-18T02:01:33.921Z,2.73
2019-03-18T02:04:01.365Z,0.73
2019-03-18T02:06:28.850Z,1.07
2019-03-18T02:08:56.368Z,0.50
2019-03-18T02:11:23.866Z,1.80
2019-03-18T02:13:51.381Z,1.00
2019-03-18T02:16:19.828Z,0.93
2019-03-18T02:18:47.278Z,0.70
2019-03-18T02:21:14.825Z,1.53
2019-03-18T02:23:42.281Z,1.60
2019-03-18T02:26:09.742Z,0.57
2019-03-18T02:28:37.223Z,1.37
2019-03-18T02:31:04.676Z,2.53
2019-03-18T02:33:32.216Z,0.40
2019-03-18T02:35:59.766Z,0.83
2019-03-18T02:38:27.471Z,1.07
2019-03-18T02:40:54.943Z,3.00
2019-03-18T02:43:22.407Z,0.93
2019-03-18T02:45:49.931Z,1.27
2019-03-18T02:48:17.380Z,1.57
2019-03-18T02:50:44.851Z,4.00
2019-03-18T02:53:12.462Z,0.60
2019-03-18T02:55:39.961Z,2.70
2019-03-18T02:58:07.547Z,5.10
2019-03-18T03:00:34.998Z,2.30
2019-03-18T03:03:02.566Z,3.50
2019-03-18T03:05:29.993Z,0.50
2019-03-18T03:07:57.438Z,0.77
2019-03-18T03:10:24.989Z,1.03
2019-03-18T03:12:52.590Z,1.63
2019-03-18T03:15:20.055Z,0.90
2019-03-18T03:17:47.873Z,0.70
2019-03-18T03:20:15.318Z,5.20
2019-03-18T03:22:42.992Z,1.03
2019-03-18T03:25:10.691Z,2.50
2019-03-18T03:27:38.270Z,0.60
2019-03-18T03:30:06.506Z,1.60
2019-03-18T03:32:34.099Z,0.80
2019-03-18T03:35:01.854Z,1.00
2019-03-18T03:37:29.491Z,1.23
2019-03-18T03:39:56.929Z,0.73
2019-03-18T03:42:24.381Z,0.97
2019-03-18T03:44:51.873Z,7.87
2019-03-18T03:47:19.753Z,0.50
2019-03-18T03:49:47.299Z,2.23
2019-03-18T03:52:14.777Z,1.27
2019-03-18T03:54:42.405Z,1.43
2019-03-18T03:57:09.992Z,0.67
2019-03-18T03:59:37.756Z,1.53
2019-03-18T04:02:05.214Z,3.70
2019-03-18T04:04:32.743Z,0.90
2019-03-18T04:07:00.260Z,0.57
2019-03-18T04:09:27.756Z,2.20
2019-03-18T04:11:55.325Z,2.33
2019-03-18T04:14:22.807Z,1.93
2019-03-18T04:17:01.568Z,2.73
2019-03-18T04:19:20.701Z,1.00
2019-03-18T04:21:50.550Z,2.10
2019-03-18T04:24:17.877Z,1.47
2019-03-18T04:26:45.306Z,2.80
2019-03-18T04:29:12.848Z,0.83
2019-03-18T04:31:40.258Z,2.60
2019-03-18T04:34:07.896Z,0.50
2019-03-18T04:36:35.392Z,4.00
2019-03-18T04:39:03.862Z,1.07
2019-03-18T04:41:31.365Z,4.77
2019-03-18T04:43:58.843Z,3.47
2019-03-18T04:46:26.297Z,3.03
2019-03-18T04:48:53.872Z,3.73
2019-03-18T04:51:21.552Z,2.33
2019-03-18T04:53:48.990Z,4.40
2019-03-18T04:56:16.518Z,3.30
2019-03-18T04:58:43.993Z,1.40
2019-03-18T05:01:11.524Z,1.03
2019-03-18T05:03:39.041Z,2.10
2019-03-18T05:06:06.592Z,1.00
2019-03-18T05:08:34.058Z,1.07
2019-03-18T05:11:01.630Z,1.77
2019-03-18T05:13:29.101Z,1.03
2019-03-18T05:15:56.673Z,0.70
2019-03-18T05:18:24.229Z,1.07
2019-03-18T05:20:51.723Z,3.60
2019-03-18T05:23:19.179Z,1.27
2019-03-18T05:25:46.677Z,1.47
2019-03-18T05:28:14.942Z,1.10
2019-03-18T05:30:42.552Z,1.70
2019-03-18T05:33:10.130Z,0.90
2019-03-18T05:35:37.606Z,2.60
2019-03-18T05:38:05.084Z,3.60
2019-03-18T05:40:32.675Z,2.23
2019-03-18T05:43:00.157Z,1.00
2019-03-18T05:45:27.597Z,2.67
2019-03-18T05:47:55.078Z,1.70
2019-03-18T05:50:22.520Z,0.90
2019-03-18T05:52:50.056Z,1.33
2019-03-18T05:55:17.514Z,2.87
2019-03-18T05:57:44.970Z,28.77
2019-03-18T06:00:12.433Z,2.03
2019-03-18T06:02:39.919Z,2.60
2019-03-18T06:05:07.438Z,3.13
2019-03-18T06:07:34.942Z,2.23
2019-03-18T06:10:02.541Z,3.70
2019-03-18T06:12:30.005Z,1.43
2019-03-18T06:14:57.461Z,1.10
2019-03-18T06:17:24.900Z,1.10
2019-03-18T06:19:52.416Z,1.67
2019-03-18T06:22:19.914Z,3.23
2019-03-18T06:24:47.350Z,1.63
2019-03-18T06:27:14.858Z,1.50
2019-03-18T06:29:42.370Z,1.43
2019-03-18T06:32:09.866Z,5.03
2019-03-18T06:34:37.367Z,1.10
2019-03-18T06:37:04.917Z,2.23
2019-03-18T06:39:32.393Z,2.20
2019-03-18T06:41:59.899Z,4.83
2019-03-18T06:44:27.399Z,3.13
2019-03-18T06:46:54.982Z,1.40
2019-03-18T06:49:22.519Z,4.63
2019-03-18T06:51:49.994Z,4.90
2019-03-18T06:54:17.444Z,1.50
2019-03-18T06:56:45.142Z,3.57
2019-03-18T06:59:12.634Z,6.43
2019-03-18T07:01:40.179Z,3.83
2019-03-18T07:04:07.914Z,2.57
2019-03-18T07:06:36.678Z,1.70
2019-03-18T07:09:05.727Z,2.83
2019-03-18T07:11:33.375Z,3.93
2019-03-18T07:14:00.945Z,3.80
2019-03-18T07:16:28.434Z,1.50
2019-03-18T07:18:56.117Z,10.57
2019-03-18T07:21:23.605Z,1.40
2019-03-18T07:23:51.062Z,6.73
2019-03-18T07:26:18.578Z,4.67
2019-03-18T07:28:46.069Z,3.90
2019-03-18T07:34:06.089Z,5.20
2019-03-18T07:36:33.822Z,1.50
2019-03-18T07:39:01.259Z,5.53
2019-03-18T07:41:29.822Z,3.47
2019-03-18T07:43:57.278Z,2.83
2019-03-18T07:46:24.809Z,4.07
2019-03-18T07:48:52.302Z,2.70
2019-03-18T07:51:19.785Z,11.07
2019-03-18T07:53:47.272Z,4.00
2019-03-18T07:56:15.098Z,1.53
2019-03-18T07:58:42.742Z,7.70
2019-03-18T08:01:10.217Z,2.60
2019-03-18T08:03:37.688Z,7.87
2019-03-18T08:06:05.231Z,11.73
2019-03-18T08:08:32.807Z,1.93
2019-03-18T08:11:01.432Z,3.60
2019-03-18T08:13:28.977Z,6.53
2019-03-18T08:15:56.413Z,6.10
2019-03-18T08:18:24.067Z,3.73
2019-03-18T08:20:51.618Z,9.00
2019-03-18T08:23:19.211Z,7.33
2019-03-18T08:25:46.718Z,4.40
2019-03-18T08:28:14.736Z,3.30
2019-03-18T08:30:42.268Z,3.70
2019-03-18T08:33:10.782Z,2.57
2019-03-18T08:35:38.226Z,3.80
2019-03-18T08:38:05.751Z,2.23
2019-03-18T08:40:33.245Z,4.53
2019-03-18T08:43:00.820Z,11.03
2019-03-18T08:45:28.394Z,9.30
2019-03-18T08:47:55.852Z,6.27
2019-03-18T08:50:23.305Z,3.80
2019-03-18T08:52:50.948Z,1.80
2019-03-18T08:55:18.545Z,2.77
2019-03-18T08:57:45.982Z,3.47
2019-03-18T09:00:13.445Z,3.43
2019-03-18T09:02:40.909Z,15.13
2019-03-18T09:05:08.937Z,1.50
2019-03-18T09:07:36.476Z,1.97
2019-03-18T09:10:05.180Z,2.43
2019-03-18T09:12:32.834Z,2.40
2019-03-18T09:15:01.434Z,2.00
2019-03-18T09:17:28.949Z,1.90
2019-03-18T09:19:56.399Z,2.00
2019-03-18T09:22:23.849Z,4.07
2019-03-18T09:24:52.374Z,6.23
2019-03-18T09:27:19.824Z,6.13
2019-03-18T09:29:47.330Z,2.63
2019-03-18T09:32:14.937Z,0.93
2019-03-18T09:34:42.441Z,2.33
2019-03-18T09:37:10.125Z,1.43
2019-03-18T09:39:38.696Z,3.63
2019-03-18T09:42:06.326Z,5.27
2019-03-18T09:44:33.776Z,2.30
2019-03-18T09:47:02.302Z,1.90
2019-03-18T09:49:29.742Z,4.33
2019-03-18T09:51:57.316Z,8.03
2019-03-18T09:54:24.791Z,2.10
2019-03-18T09:56:52.303Z,1.47
2019-03-18T09:59:19.953Z,1.10
2019-03-18T10:01:47.493Z,1.20
2019-03-18T10:04:14.978Z,3.00
2019-03-18T10:06:42.587Z,2.30
2019-03-18T10:09:10.197Z,2.87
2019-03-18T10:11:37.930Z,3.77
2019-03-18T10:14:05.610Z,4.00
2019-03-18T10:16:33.162Z,0.90
2019-03-18T10:19:00.669Z,1.20
2019-03-18T10:21:28.332Z,1.73
2019-03-18T10:23:55.881Z,4.13
2019-03-18T10:26:23.563Z,1.30
2019-03-18T10:28:52.084Z,4.20
2019-03-18T10:31:20.822Z,1.73
2019-03-18T10:33:48.350Z,1.70
2019-03-18T10:36:16.030Z,2.30
2019-03-18T10:38:44.651Z,1.50
2019-03-18T10:41:12.174Z,4.27
2019-03-18T10:43:39.773Z,1.27
2019-03-18T10:46:07.379Z,2.53
2019-03-18T10:48:35.327Z,5.60
2019-03-18T10:51:02.948Z,1.73
2019-03-18T10:53:30.497Z,1.50
2019-03-18T10:56:07.177Z,2.63
2019-03-18T10:58:27.966Z,2.60
2019-03-18T11:00:55.677Z,5.30
2019-03-18T11:03:23.358Z,2.00
2019-03-18T11:05:51.077Z,2.00
2019-03-18T11:08:22.282Z,1.07
2019-03-18T11:10:50.400Z,5.17
2019-03-18T11:13:18.122Z,0.60
2019-03-18T11:15:45.776Z,2.93
2019-03-18T11:18:13.246Z,1.03
2019-03-18T11:20:40.845Z,1.70
2019-03-18T11:23:08.395Z,4.70
2019-03-18T11:25:36.960Z,1.40
2019-03-18T11:28:04.493Z,2.83
2019-03-18T11:30:32.050Z,4.83
2019-03-18T11:32:59.566Z,7.50
2019-03-18T11:35:27.182Z,2.20
2019-03-18T11:37:54.648Z,3.03
2019-03-18T11:40:23.314Z,1.80
2019-03-18T11:42:51.084Z,0.97
2019-03-18T11:45:19.449Z,4.27
2019-03-18T11:47:47.382Z,2.00
2019-03-18T11:50:14.866Z,1.13
2019-03-18T11:52:42.312Z,3.27
2019-03-18T11:55:11.323Z,1.80
2019-03-18T11:57:38.816Z,0.80
2019-03-18T12:00:07.445Z,2.93
2019-03-18T12:02:35.898Z,3.07
2019-03-18T12:05:04.078Z,5.53
2019-03-18T12:07:31.619Z,1.30
2019-03-18T12:09:59.185Z,1.13
2019-03-18T12:12:26.680Z,0.40
2019-03-18T12:14:54.148Z,0.83
2019-03-18T12:17:22.076Z,0.80
2019-03-18T12:19:49.566Z,2.87
2019-03-18T12:22:17.039Z,5.20
2019-03-18T12:24:44.514Z,1.23
2019-03-18T12:27:12.119Z,1.87
2019-03-18T12:29:39.558Z,1.07
2019-03-18T12:32:07.006Z,1.50
2019-03-18T12:34:34.555Z,0.70
2019-03-18T12:37:07.302Z,0.50
2019-03-18T12:39:37.431Z,0.53
2019-03-18T12:42:05.079Z,3.03
2019-03-18T12:44:32.652Z,6.80
2019-03-18T12:47:00.126Z,0.90
2019-03-18T12:49:27.592Z,2.00
2019-03-18T12:51:55.069Z,1.27
2019-03-18T12:54:22.627Z,3.97
2019-03-18T12:56:50.156Z,0.50
2019-03-18T12:59:17.628Z,10.27
2019-03-18T13:01:45.213Z,0.73
2019-03-18T13:04:13.037Z,1.50
2019-03-18T13:06:40.579Z,0.53
2019-03-18T13:09:08.325Z,2.47
2019-03-18T13:11:35.821Z,1.90
2019-03-18T13:14:03.425Z,1.40
2019-03-18T13:16:30.930Z,3.07
2019-03-18T13:18:58.443Z,3.07
2019-03-18T13:21:26.287Z,1.17
2019-03-18T13:23:54.115Z,5.77
2019-03-18T13:26:21.835Z,0.97
2019-03-18T13:28:51.122Z,3.17
2019-03-18T13:31:20.372Z,2.63
2019-03-18T13:33:47.862Z,1.23
2019-03-18T13:36:15.530Z,1.27
2019-03-18T13:38:43.267Z,1.07
2019-03-18T13:41:10.909Z,3.50
2019-03-18T13:43:40.080Z,3.17
2019-03-18T13:46:08.490Z,1.67
2019-03-18T13:48:36.639Z,2.33
2019-03-18T13:51:04.327Z,1.40
2019-03-18T13:53:31.905Z,12.20
2019-03-18T13:55:59.465Z,0.60
2019-03-18T13:58:29.062Z,1.13
2019-03-18T14:00:57.570Z,4.50
2019-03-18T14:03:26.484Z,2.57
2019-03-18T14:05:54.324Z,1.40
2019-03-18T14:08:21.875Z,3.37
2019-03-18T14:10:49.620Z,0.77
2019-03-18T14:13:17.448Z,1.00
2019-03-18T14:15:45.223Z,4.87
2019-03-18T14:18:12.922Z,2.20
2019-03-18T14:20:40.651Z,5.73
2019-03-18T14:23:08.227Z,1.37
2019-03-18T14:25:35.821Z,2.73
2019-03-18T14:28:03.395Z,0.80
2019-03-18T14:30:30.996Z,1.80
2019-03-18T14:32:58.565Z,1.67
2019-03-18T14:35:26.269Z,1.63
2019-03-18T14:37:53.930Z,2.23
2019-03-18T14:40:21.491Z,1.00
2019-03-18T14:42:49.001Z,2.27
2019-03-18T14:45:16.815Z,0.70
2019-03-18T14:47:44.430Z,1.90
2019-03-18T14:50:12.384Z,2.93
2019-03-18T14:52:41.037Z,4.20
2019-03-18T14:55:10.177Z,1.10
2019-03-18T14:57:38.237Z,1.80
2019-03-18T15:00:10.099Z,0.30
2019-03-18T15:02:37.762Z,0.30
2019-03-18T15:05:06.785Z,2.63
2019-03-18T15:07:34.439Z,0.60
2019-03-18T15:10:02.463Z,0.30
2019-03-18T15:12:30.566Z,0.57
2019-03-18T15:14:58.186Z,0.50
2019-03-18T15:17:25.768Z,0.67
2019-03-18T15:19:53.434Z,0.43
2019-03-18T15:22:21.954Z,0.93
2019-03-18T15:24:49.523Z,1.00
2019-03-18T15:27:17.215Z,0.57
2019-03-18T15:29:44.960Z,0.30
2019-03-18T15:32:12.716Z,0.47
2019-03-18T15:34:40.336Z,2.20
2019-03-18T15:37:08.249Z,2.13
2019-03-18T15:39:36.721Z,0.40
2019-03-18T15:42:04.569Z,0.80
2019-03-18T15:44:33.305Z,0.53
2019-03-18T15:47:00.939Z,1.20
2019-03-18T15:49:28.700Z,2.20
2019-03-18T15:51:56.302Z,1.90
2019-03-18T15:54:23.851Z,1.33
2019-03-18T15:56:51.610Z,4.23
2019-03-18T15:59:19.339Z,1.63
2019-03-18T16:01:47.086Z,0.50
2019-03-18T16:04:14.813Z,2.30
2019-03-18T16:06:42.321Z,1.07
2019-03-18T16:09:09.888Z,1.03
2019-03-18T16:11:37.642Z,5.20
2019-03-18T16:14:05.906Z,0.60
2019-03-18T16:16:33.586Z,1.60
2019-03-18T16:19:01.276Z,1.33
2019-03-18T16:21:29.028Z,0.60
2019-03-18T16:23:57.316Z,0.83
2019-03-18T16:26:25.046Z,2.40
2019-03-18T16:28:52.741Z,2.00
2019-03-18T16:31:20.277Z,1.17
2019-03-18T16:33:47.874Z,2.63
2019-03-18T16:36:15.482Z,1.10
2019-03-18T16:38:43.001Z,0.93
2019-03-18T16:41:10.735Z,1.67
2019-03-18T16:43:38.376Z,1.90
2019-03-18T16:46:06.344Z,1.87
2019-03-18T16:48:33.918Z,1.80
2019-03-18T16:51:01.546Z,3.80
2019-03-18T16:53:29.182Z,1.87
2019-03-18T16:55:57.288Z,2.67
2019-03-18T16:58:25.247Z,0.80
2019-03-18T17:00:52.844Z,7.70
2019-03-18T17:03:20.439Z,1.40
2019-03-18T17:05:48.034Z,3.70
2019-03-18T17:08:15.767Z,5.10
2019-03-18T17:10:43.389Z,1.00
2019-03-18T17:13:10.999Z,0.70
2019-03-18T17:15:38.559Z,1.37
2019-03-18T17:18:06.194Z,1.73
2019-03-18T17:20:33.832Z,2.13
2019-03-18T17:23:01.380Z,0.83
2019-03-18T17:25:29.223Z,0.70
2019-03-18T17:27:56.901Z,0.80
2019-03-18T17:30:26.702Z,2.97
2019-03-18T17:32:55.043Z,3.30
2019-03-18T17:35:22.880Z,9.80
2019-03-18T17:37:51.975Z,10.60
2019-03-18T17:40:24.808Z,6.77
2019-03-18T17:42:53.360Z,56.27
2019-03-18T17:45:24.256Z,41.10
2019-03-18T17:47:52.533Z,62.57
2019-03-18T17:50:27.268Z,12.37
2019-03-18T17:53:03.142Z,44.97
2019-03-18T17:55:32.478Z,40.93
2019-03-18T17:58:04.166Z,1.80
2019-03-18T18:00:43.791Z,0.70
2019-03-18T18:03:20.436Z,2.50
2019-03-18T18:05:52.553Z,1.83
2019-03-18T18:08:20.290Z,21.10
2019-03-18T18:10:48.103Z,10.83
2019-03-18T18:13:16.521Z,1.07
2019-03-18T18:15:44.100Z,1.60
2019-03-18T18:18:12.878Z,1.50
2019-03-18T18:20:40.449Z,1.63
2019-03-18T18:23:14.172Z,2.20
2019-03-18T18:25:38.338Z,3.17
2019-03-18T18:28:06.023Z,1.27
2019-03-18T18:30:33.663Z,3.10
2019-03-18T18:33:01.570Z,2.00
2019-03-18T18:35:29.176Z,1.80
2019-03-18T18:37:56.790Z,3.50
2019-03-18T18:40:24.759Z,2.57
2019-03-18T18:42:52.459Z,7.10
2019-03-18T18:45:21.255Z,10.73
2019-03-18T18:47:49.186Z,18.70
2019-03-18T18:50:17.437Z,2.90
2019-03-18T18:52:45.089Z,3.20
2019-03-18T18:55:12.827Z,2.37
2019-03-18T18:57:40.526Z,4.23
2019-03-18T19:00:10.742Z,4.70
2019-03-18T19:02:38.358Z,3.40
2019-03-18T19:05:06.942Z,4.10
2019-03-18T19:07:34.489Z,2.23
2019-03-18T19:10:02.128Z,2.50
2019-03-18T19:12:29.856Z,4.90
2019-03-18T19:14:57.567Z,2.70
2019-03-18T19:17:25.474Z,3.23
2019-03-18T19:19:53.265Z,3.03
2019-03-18T19:22:21.047Z,3.50
2019-03-18T19:24:48.693Z,3.47
2019-03-18T19:27:16.546Z,8.40
2019-03-18T19:29:44.279Z,6.90
2019-03-18T19:32:12.045Z,8.37
2019-03-18T19:34:39.790Z,3.47
2019-03-18T19:37:07.503Z,3.13
2019-03-18T19:39:35.054Z,3.10
2019-03-18T19:42:02.817Z,6.97
2019-03-18T19:44:30.637Z,2.73
2019-03-18T19:46:58.383Z,3.33
2019-03-18T19:49:25.968Z,4.00
2019-03-18T19:51:53.472Z,4.80
2019-03-18T19:54:21.122Z,5.90
2019-03-18T19:56:48.837Z,3.80
2019-03-18T19:59:16.481Z,4.43
2019-03-18T20:01:44.324Z,5.63
2019-03-18T20:04:12.026Z,5.43
2019-03-18T20:06:39.691Z,2.30
2019-03-18T20:09:07.505Z,3.20
2019-03-18T20:11:35.256Z,4.00
2019-03-18T20:14:02.935Z,2.20
2019-03-18T20:16:30.616Z,2.90
2019-03-18T20:18:58.272Z,3.03
2019-03-18T20:21:26.796Z,1.37
2019-03-18T20:24:00.853Z,1.10
2019-03-18T20:26:24.193Z,1.00
2019-03-18T20:28:51.882Z,1.87
2019-03-18T20:31:25.770Z,1.30
2019-03-18T20:33:49.047Z,4.03
2019-03-18T20:36:16.506Z,1.73
2019-03-18T20:38:44.062Z,1.40
2019-03-18T20:41:11.640Z,2.03
2019-03-18T20:43:39.152Z,2.90
2019-03-18T20:46:06.815Z,3.13
2019-03-18T20:48:34.504Z,2.60
2019-03-18T20:51:02.388Z,3.83
2019-03-18T20:53:30.162Z,3.20
2019-03-18T20:55:57.726Z,4.10
2019-03-18T20:58:25.360Z,4.83
2019-03-18T21:00:53.151Z,5.33
2019-03-18T21:03:20.777Z,10.30
2019-03-18T21:05:48.320Z,5.50
2019-03-18T21:08:15.967Z,6.50
2019-03-18T21:10:47.436Z,7.80
2019-03-18T21:13:17.145Z,7.90
2019-03-18T21:15:45.966Z,4.80
2019-03-18T21:18:13.702Z,5.77
2019-03-18T21:20:41.362Z,13.00
2019-03-18T21:23:09.030Z,5.60
2019-03-18T21:25:36.645Z,10.97
2019-03-18T21:28:04.553Z,6.70
2019-03-18T21:30:32.428Z,5.47
2019-03-18T21:33:00.172Z,7.57
2019-03-18T21:35:28.255Z,9.17
2019-03-18T21:37:55.841Z,8.13
2019-03-18T21:40:23.422Z,9.80
2019-03-18T21:42:51.267Z,8.30
2019-03-18T21:45:18.910Z,8.80
2019-03-18T21:47:46.792Z,7.77
2019-03-18T21:50:14.445Z,11.07
2019-03-18T21:52:41.990Z,11.87
2019-03-18T21:55:09.752Z,9.20
2019-03-18T21:57:37.323Z,8.20
2019-03-18T22:00:05.246Z,6.50
2019-03-18T22:02:33.852Z,10.27
2019-03-18T22:05:01.777Z,5.63
2019-03-18T22:07:29.581Z,7.67
2019-03-18T22:09:57.176Z,11.20
2019-03-18T22:12:24.670Z,16.03
2019-03-18T22:14:52.260Z,17.10
2019-03-18T22:17:19.718Z,21.10
2019-03-18T22:19:47.186Z,18.07
2019-03-18T22:22:14.706Z,16.60
2019-03-18T22:24:45.673Z,10.20
2019-03-18T22:27:11.869Z,9.47
2019-03-18T22:29:39.721Z,10.27
2019-03-18T22:32:07.611Z,12.63
2019-03-18T22:34:35.336Z,8.57
2019-03-18T22:37:02.880Z,8.37
2019-03-18T22:39:30.478Z,15.23
2019-03-18T22:41:58.002Z,11.30
2019-03-18T22:44:25.552Z,10.37
2019-03-18T22:46:53.021Z,11.67
2019-03-18T22:49:20.488Z,12.27
2019-03-18T22:51:48.118Z,11.30
2019-03-18T22:54:15.666Z,10.80
2019-03-18T22:56:43.340Z,9.67
2019-03-18T22:59:10.886Z,16.60
2019-03-18T23:01:38.733Z,18.03
2019-03-18T23:04:06.280Z,15.00
2019-03-18T23:06:33.814Z,17.63
2019-03-18T23:09:01.562Z,21.87
2019-03-18T23:11:30.151Z,16.33
2019-03-18T23:13:57.686Z,17.90
2019-03-18T23:16:25.349Z,16.73
2019-03-18T23:18:52.933Z,18.47
2019-03-18T23:21:20.402Z,15.47
2019-03-18T23:23:48.001Z,12.40
2019-03-18T23:26:15.493Z,10.27
2019-03-18T23:28:43.045Z,10.10
2019-03-18T23:31:10.766Z,10.20
2019-03-18T23:33:38.260Z,9.80
2019-03-18T23:36:05.941Z,14.93
2019-03-18T23:38:33.964Z,11.03
2019-03-18T23:41:01.460Z,11.43
2019-03-18T23:43:29.076Z,12.50
2019-03-18T23:45:56.559Z,16.93
2019-03-18T23:48:24.046Z,12.53
2019-03-18T23:50:51.678Z,18.57
2019-03-18T23:53:19.377Z,15.90
2019-03-18T23:55:47.946Z,20.03
2019-03-18T23:58:15.502Z,12.10
